CheckWX is a tool to help pilots better visualize weather data.  It is not intended as a substitute for an official pre-flight weather briefing.

23:33:08 UTC

KCLL TAF
Easterwood Field Airport
College Station, Texas, USA
KCLL 182045Z 1821/1918 12005KT P6SM SKC FM191000 17004KT 5SM BR BKN005 FM191400 20008KT P6SM SCT025

Oct-18@
21:00 UTC

Oct-18 @ 21:00 UTC

Oct-19@
10:00 UTC

Oct-19 @ 10:00 UTC

KCLL 182045Z 1821/1918 12005KT P6SM SKC
Wind
  • 120° at 5 KTS
Cloud Levels
  • Clear skies

Oct-19@
10:00 UTC

Oct-19 @ 10:00 UTC

Oct-19@
14:00 UTC

Oct-19 @ 14:00 UTC

FM191000 17004KT 5SM BR BKN005

From

From Standard forecast or significant change

Wind
  • 170° at 4 KTS
Conditions
Mist
Cloud Levels
  • Broken at 500' AGL

Oct-19@
14:00 UTC

Oct-19 @ 14:00 UTC

Oct-19@
18:00 UTC

Oct-19 @ 18:00 UTC

FM191400 20008KT P6SM SCT025

From

From Standard forecast or significant change

Wind
  • 200° at 8 KTS
Cloud Levels
  • Scattered at 2,500' AGL